Time;durP1;ratioP1;P1;durP2;ratioP2;P2;SDS_P1;SDS_P2;PMS_P1;PMS_P2;Temp;Humidity;BMP_temperature;BMP_pressure;BME280_temperature;BME280_humidity;BME280_pressure;Samples;Min_cycle;Max_cycle;Signal;HPM_P1;HPM_P2
2022/01/09 00:01:30;;;;;;;6.72;6.03;;;5.40;80.20;;;;;;4987846;28;20377;-77
2022/01/09 00:03:55;;;;;;;8.52;6.00;;;5.40;80.20;;;;;;4992329;28;20042;-78
2022/01/09 00:06:21;;;;;;;7.88;6.32;;;5.40;80.30;;;;;;4983349;28;20466;-78
2022/01/09 00:08:47;;;;;;;8.13;7.32;;;5.40;80.30;;;;;;4990784;28;20105;-79
2022/01/09 00:11:14;;;;;;;7.22;5.97;;;5.40;80.30;;;;;;4992184;28;20058;-78
2022/01/09 00:13:41;;;;;;;8.00;6.53;;;5.40;80.40;;;;;;4976023;28;20494;-78
2022/01/09 00:16:07;;;;;;;7.55;6.03;;;5.40;80.40;;;;;;4991285;28;20505;-78
2022/01/09 00:18:33;;;;;;;8.30;6.22;;;5.40;80.40;;;;;;4975085;28;20418;-79
2022/01/09 00:21:05;;;;;;;6.97;6.10;;;5.40;80.40;;;;;;4993117;28;20042;-79
2022/01/09 00:23:34;;;;;;;7.07;6.03;;;5.40;80.40;;;;;;4993321;28;20371;-79
2022/01/09 00:26:00;;;;;;;7.28;6.35;;;5.50;80.50;;;;;;4990944;28;20057;-79
2022/01/09 00:28:26;;;;;;;6.80;6.07;;;5.50;80.50;;;;;;4978501;28;20042;-78
2022/01/09 00:30:51;;;;;;;7.03;6.32;;;5.50;80.50;;;;;;4965393;28;20085;-78
2022/01/09 00:33:21;;;;;;;6.88;6.18;;;5.50;80.50;;;;;;4978517;28;20050;-78
2022/01/09 00:35:47;;;;;;;7.07;6.38;;;5.50;80.50;;;;;;4976463;28;20201;-78
2022/01/09 00:38:12;;;;;;;6.43;5.63;;;5.50;80.60;;;;;;4978906;28;20438;-78
2022/01/09 00:40:38;;;;;;;7.20;5.93;;;5.50;80.60;;;;;;4997051;28;20125;-77
2022/01/09 00:43:08;;;;;;;7.78;6.45;;;5.50;80.60;;;;;;4976639;28;20406;-78
2022/01/09 00:45:34;;;;;;;6.35;5.75;;;5.50;81.00;;;;;;4963289;28;20134;-78
2022/01/09 00:48:00;;;;;;;6.22;5.63;;;5.60;80.60;;;;;;4995589;28;20145;-83
2022/01/09 00:50:26;;;;;;;6.30;5.57;;;5.60;80.60;;;;;;4996660;28;20070;-81
2022/01/09 00:52:52;;;;;;;6.65;5.30;;;5.60;80.60;;;;;;4990569;28;20141;-81
2022/01/09 00:55:18;;;;;;;5.30;4.72;;;5.60;80.60;;;;;;4992724;28;20383;-82
2022/01/09 00:57:44;;;;;;;5.60;5.03;;;5.60;80.60;;;;;;4994311;28;20081;-81
2022/01/09 01:00:11;;;;;;;5.78;5.03;;;5.60;80.60;;;;;;4996852;28;20046;-81
2022/01/09 01:02:38;;;;;;;5.55;4.72;;;5.60;80.70;;;;;;4968739;28;20149;-81
2022/01/09 01:05:05;;;;;;;5.97;4.70;;;5.60;80.70;;;;;;4996871;28;20081;-81
2022/01/09 01:07:31;;;;;;;5.60;4.78;;;5.60;80.70;;;;;;4977840;28;20479;-82
2022/01/09 01:09:57;;;;;;;6.80;5.50;;;5.60;80.70;;;;;;4982452;28;20065;-81
2022/01/09 01:12:28;;;;;;;5.57;4.78;;;5.70;80.70;;;;;;4971314;28;20086;-82
2022/01/09 01:14:53;;;;;;;5.18;4.65;;;5.60;80.70;;;;;;4977304;28;20069;-82
2022/01/09 01:17:20;;;;;;;5.50;5.00;;;5.70;80.70;;;;;;4993936;28;20030;-81
2022/01/09 01:19:46;;;;;;;6.43;5.50;;;5.70;80.70;;;;;;4996184;28;20129;-82
2022/01/09 01:22:13;;;;;;;6.65;5.30;;;5.70;81.10;;;;;;4994310;28;20118;-81
2022/01/09 01:24:39;;;;;;;5.70;4.90;;;5.80;80.80;;;;;;4995335;28;20113;-82
2022/01/09 01:27:05;;;;;;;5.75;5.13;;;5.70;80.70;;;;;;4994913;28;20050;-82
2022/01/09 01:29:31;;;;;;;5.57;4.50;;;5.70;80.70;;;;;;4973727;28;20043;-82
2022/01/09 01:31:57;;;;;;;7.72;5.72;;;5.70;80.70;;;;;;4966877;28;20540;-81
2022/01/09 01:34:22;;;;;;;5.78;4.72;;;5.80;80.70;;;;;;4969985;28;20050;-82
2022/01/09 01:36:48;;;;;;;5.72;4.95;;;5.80;80.80;;;;;;4995021;28;20042;-82
2022/01/09 01:39:13;;;;;;;6.25;5.55;;;5.80;80.80;;;;;;4985353;28;20093;-82
2022/01/09 01:41:39;;;;;;;5.15;4.65;;;5.80;80.80;;;;;;4993939;28;20190;-82
2022/01/09 01:44:09;;;;;;;8.00;4.72;;;5.80;80.80;;;;;;4983969;28;20375;-82
2022/01/09 01:46:35;;;;;;;5.43;4.25;;;5.80;80.90;;;;;;4995452;28;20183;-80
2022/01/09 01:49:01;;;;;;;5.10;4.20;;;5.80;80.90;;;;;;4991766;28;20772;-81
2022/01/09 01:51:26;;;;;;;5.13;3.95;;;5.90;81.00;;;;;;4976543;28;20390;-82
2022/01/09 01:53:56;;;;;;;8.95;4.50;;;5.90;81.00;;;;;;4981408;28;20042;-82
2022/01/09 01:56:23;;;;;;;9.43;5.25;;;5.90;81.10;;;;;;4993493;28;20054;-81
2022/01/09 01:58:50;;;;;;;7.25;3.67;;;5.90;81.20;;;;;;4990234;28;20113;-81
2022/01/09 02:01:17;;;;;;;6.47;2.85;;;5.90;81.30;;;;;;4976391;28;20129;-81
2022/01/09 02:03:43;;;;;;;7.55;2.55;;;6.00;81.40;;;;;;4994340;28;20053;-81
2022/01/09 02:06:10;;;;;;;12.27;3.22;;;6.00;81.50;;;;;;4995223;28;20038;-81
2022/01/09 02:08:36;;;;;;;9.75;2.97;;;6.00;81.60;;;;;;4994939;28;20121;-81
2022/01/09 02:11:02;;;;;;;7.38;2.85;;;6.10;81.70;;;;;;4974435;28;20054;-81
2022/01/09 02:13:28;;;;;;;13.68;3.35;;;6.20;82.20;;;;;;4983413;28;20047;-81
2022/01/09 02:16:00;;;;;;;15.65;4.00;;;6.10;81.80;;;;;;4977776;28;20093;-81
2022/01/09 02:18:26;;;;;;;16.38;2.80;;;6.20;82.00;;;;;;4993973;28;20065;-82
2022/01/09 02:20:52;;;;;;;10.65;2.90;;;6.20;82.00;;;;;;4993105;28;20035;-81
2022/01/09 02:23:19;;;;;;;11.55;2.28;;;6.20;82.00;;;;;;4975883;28;20057;-81
2022/01/09 02:25:46;;;;;;;12.43;3.00;;;6.20;82.10;;;;;;4994427;28;20054;-81
2022/01/09 02:28:14;;;;;;;15.20;2.60;;;6.30;82.10;;;;;;4990320;28;20104;-82
2022/01/09 02:30:41;;;;;;;17.95;2.92;;;6.30;82.20;;;;;;4993524;28;20387;-82
2022/01/09 02:33:14;;;;;;;12.07;2.50;;;6.30;82.20;;;;;;4980707;28;20046;-80
2022/01/09 02:35:39;;;;;;;16.33;3.47;;;6.30;82.70;;;;;;4973425;28;20050;-82
2022/01/09 02:38:06;;;;;;;15.75;3.05;;;6.30;82.20;;;;;;4994361;28;20045;-81
2022/01/09 02:40:32;;;;;;;19.60;3.47;;;6.30;82.30;;;;;;4991110;28;20549;-82
2022/01/09 02:42:58;;;;;;;20.40;3.90;;;6.30;82.30;;;;;;4983153;28;20030;-81
2022/01/09 02:45:26;;;;;;;23.10;3.00;;;6.40;82.30;;;;;;4975593;28;20097;-81
2022/01/09 02:47:54;;;;;;;16.98;3.30;;;6.40;82.40;;;;;;4993303;28;20121;-81
2022/01/09 02:55:38;;;;;;;22.13;4.10;;;6.40;82.40;;;;;;4987466;28;20066;-81
2022/01/09 02:58:04;;;;;;;23.35;3.45;;;6.50;82.40;;;;;;4972786;28;20055;-81
2022/01/09 03:00:33;;;;;;;25.45;4.88;;;6.50;82.40;;;;;;4955918;28;20450;-81
2022/01/09 03:02:59;;;;;;;23.58;4.65;;;6.50;82.40;;;;;;4977900;28;20039;-81
2022/01/09 03:05:26;;;;;;;29.08;4.70;;;6.50;82.30;;;;;;4972254;28;20074;-81
2022/01/09 03:07:52;;;;;;;23.98;3.97;;;6.50;82.30;;;;;;4972833;28;20470;-81
2022/01/09 03:10:20;;;;;;;31.48;4.72;;;6.50;82.30;;;;;;4956100;28;20066;-80
2022/01/09 03:12:47;;;;;;;29.08;5.28;;;6.50;82.20;;;;;;4972763;28;20066;-80
2022/01/09 03:15:13;;;;;;;28.42;4.75;;;6.50;82.20;;;;;;4978081;28;20034;-81
2022/01/09 03:17:40;;;;;;;36.17;4.85;;;6.50;82.20;;;;;;4965145;28;20039;-80
2022/01/09 03:20:08;;;;;;;31.95;5.38;;;6.50;82.10;;;;;;4955951;28;20387;-81
2022/01/09 03:22:34;;;;;;;27.27;4.93;;;6.50;82.20;;;;;;4956482;28;20051;-81
2022/01/09 03:25:00;;;;;;;31.27;5.40;;;6.50;82.10;;;;;;4956587;28;20166;-81
2022/01/09 03:27:25;;;;;;;32.13;5.10;;;6.50;82.10;;;;;;4971816;28;20494;-81
2022/01/09 03:29:51;;;;;;;36.35;6.00;;;6.50;82.00;;;;;;4955537;28;20473;-81
2022/01/09 03:32:17;;;;;;;34.03;6.10;;;6.50;82.00;;;;;;4955893;28;20399;-81
2022/01/09 03:34:42;;;;;;;35.78;6.18;;;6.50;81.90;;;;;;4961988;28;20093;-81
2022/01/09 03:37:08;;;;;;;33.58;5.95;;;6.50;81.80;;;;;;4993850;28;20046;-81
2022/01/09 03:39:34;;;;;;;36.88;7.78;;;6.60;81.80;;;;;;4991105;28;20055;-81
2022/01/09 03:42:00;;;;;;;34.80;5.68;;;6.60;81.70;;;;;;4994387;28;20371;-81
2022/01/09 03:44:29;;;;;;;32.67;5.53;;;6.50;81.60;;;;;;4993026;28;20054;-81
2022/01/09 03:46:56;;;;;;;30.80;4.80;;;6.60;81.60;;;;;;4975963;28;20049;-81
2022/01/09 03:49:22;;;;;;;26.40;5.20;;;6.60;81.50;;;;;;4994144;28;20042;-80
2022/01/09 03:51:51;;;;;;;31.73;5.47;;;6.50;81.40;;;;;;4975523;28;20046;-81
2022/01/09 03:54:20;;;;;;;29.38;5.65;;;6.50;81.30;;;;;;4989298;28;20050;-81
2022/01/09 03:56:46;;;;;;;29.13;5.25;;;6.60;81.30;;;;;;4974879;28;20089;-80
2022/01/09 03:59:11;;;;;;;26.95;5.07;;;6.50;81.20;;;;;;4993532;28;20047;-81
2022/01/09 04:01:37;;;;;;;30.10;4.65;;;6.60;81.20;;;;;;4992058;28;20038;-81
2022/01/09 04:04:04;;;;;;;35.03;6.22;;;6.60;81.10;;;;;;4994562;28;20050;-81
2022/01/09 04:06:30;;;;;;;29.40;5.00;;;6.60;81.00;;;;;;4995454;28;20081;-81
2022/01/09 04:08:57;;;;;;;23.42;5.55;;;6.60;81.00;;;;;;4996375;28;20038;-81
2022/01/09 04:11:28;;;;;;;30.15;5.22;;;6.60;80.90;;;;;;4997240;28;20058;-81
2022/01/09 04:13:54;;;;;;;31.85;4.45;;;6.60;80.80;;;;;;4997064;28;20129;-81
2022/01/09 04:16:20;;;;;;;28.27;5.22;;;6.60;80.80;;;;;;4969429;28;20453;-81
2022/01/09 04:18:46;;;;;;;28.83;5.90;;;6.60;80.70;;;;;;4956151;28;20046;-81
2022/01/09 04:21:11;;;;;;;31.48;6.28;;;6.60;80.60;;;;;;4970909;28;20084;-81
2022/01/09 04:23:37;;;;;;;22.88;4.35;;;6.60;80.60;;;;;;4997233;28;20046;-80
2022/01/09 04:26:04;;;;;;;27.55;5.25;;;6.60;80.90;;;;;;4992332;28;20092;-82
2022/01/09 04:28:29;;;;;;;29.45;5.38;;;6.60;80.40;;;;;;4980874;28;20543;-81
2022/01/09 04:30:55;;;;;;;23.48;4.55;;;6.60;80.30;;;;;;4985520;28;20150;-81
2022/01/09 04:33:20;;;;;;;25.63;5.45;;;6.60;80.20;;;;;;4997244;28;20176;-81
2022/01/09 04:35:46;;;;;;;20.42;3.80;;;6.60;80.20;;;;;;4994813;28;20485;-81
2022/01/09 04:38:12;;;;;;;16.55;3.63;;;6.60;80.10;;;;;;4996876;28;20042;-81
2022/01/09 04:40:38;;;;;;;23.98;3.53;;;6.60;79.90;;;;;;4978279;28;20046;-82
2022/01/09 04:43:07;;;;;;;15.52;3.25;;;6.60;79.90;;;;;;4997171;28;20047;-81
2022/01/09 04:45:32;;;;;;;18.65;4.35;;;6.60;79.80;;;;;;4995610;28;20046;-81
2022/01/09 04:48:05;;;;;;;19.80;3.20;;;6.60;79.70;;;;;;4960162;28;20057;-81
2022/01/09 04:50:33;;;;;;;17.85;3.08;;;6.50;79.50;;;;;;4972035;28;20048;-80
2022/01/09 04:53:05;;;;;;;18.25;3.20;;;6.50;79.30;;;;;;4996734;28;20042;-81
2022/01/09 04:55:32;;;;;;;13.43;3.05;;;6.50;79.10;;;;;;4995785;28;20125;-80
2022/01/09 04:57:58;;;;;;;17.73;3.00;;;6.50;78.90;;;;;;4993632;28;20077;-80
2022/01/09 05:00:24;;;;;;;14.90;3.47;;;6.50;78.80;;;;;;4996147;28;20425;-81
2022/01/09 05:02:49;;;;;;;17.95;3.05;;;6.50;78.70;;;;;;4995611;28;20121;-81
2022/01/09 05:05:15;;;;;;;17.38;3.42;;;6.50;78.50;;;;;;4995917;28;20057;-80
2022/01/09 05:07:41;;;;;;;17.02;3.42;;;6.50;78.50;;;;;;4993140;28;20069;-81
2022/01/09 05:10:09;;;;;;;19.63;3.35;;;6.50;78.50;;;;;;4996528;28;20046;-81
2022/01/09 05:12:35;;;;;;;18.33;3.20;;;6.50;78.40;;;;;;4981505;28;20046;-81
2022/01/09 05:15:02;;;;;;;16.80;2.85;;;6.50;78.40;;;;;;4993148;28;20093;-80
2022/01/09 05:17:28;;;;;;;21.00;3.28;;;6.50;78.40;;;;;;4967443;28;20554;-80
2022/01/09 05:19:57;;;;;;;20.45;4.13;;;6.50;78.40;;;;;;4974588;28;20121;-80
2022/01/09 05:22:24;;;;;;;15.63;2.83;;;6.50;78.90;;;;;;4991297;28;20062;-80
2022/01/09 05:24:51;;;;;;;20.10;3.92;;;6.50;78.60;;;;;;4994862;28;20140;-80
2022/01/09 05:27:17;;;;;;;20.85;3.83;;;6.40;78.60;;;;;;4976465;28;20046;-80
2022/01/09 05:29:43;;;;;;;16.60;2.72;;;6.40;78.60;;;;;;4993678;28;20077;-80
2022/01/09 05:32:09;;;;;;;17.95;2.85;;;6.40;78.60;;;;;;4993919;28;20073;-80
2022/01/09 05:34:35;;;;;;;17.63;2.95;;;6.50;78.70;;;;;;4995193;28;20046;-80
2022/01/09 05:37:00;;;;;;;13.25;3.20;;;6.40;78.70;;;;;;4992485;28;20044;-80
2022/01/09 05:39:26;;;;;;;22.00;3.53;;;6.50;78.80;;;;;;4975871;28;20393;-80
2022/01/09 05:41:52;;;;;;;15.23;2.78;;;6.50;78.90;;;;;;5000073;28;20109;-80
2022/01/09 05:44:18;;;;;;;15.73;3.00;;;6.40;78.80;;;;;;5003258;28;20121;-80
2022/01/09 05:46:45;;;;;;;21.70;4.45;;;6.40;78.70;;;;;;5004919;28;20177;-80
2022/01/09 05:49:10;;;;;;;18.42;3.72;;;6.40;78.80;;;;;;4989746;28;20074;-81
2022/01/09 05:51:36;;;;;;;17.42;3.20;;;6.40;78.70;;;;;;4981194;28;20046;-80
2022/01/09 05:54:02;;;;;;;18.65;3.40;;;6.40;78.70;;;;;;4994218;28;20097;-81
2022/01/09 05:56:28;;;;;;;15.52;3.00;;;6.40;78.60;;;;;;4994987;28;20164;-80
2022/01/09 05:58:53;;;;;;;23.33;3.70;;;6.50;78.70;;;;;;4991594;28;20042;-81
2022/01/09 06:01:19;;;;;;;15.93;2.92;;;6.30;78.50;;;;;;4983947;28;20402;-81
2022/01/09 06:03:45;;;;;;;16.83;2.90;;;6.40;78.50;;;;;;4991780;28;20482;-81
2022/01/09 06:06:10;;;;;;;13.73;2.83;;;6.30;78.40;;;;;;4994844;28;20452;-80
2022/01/09 06:08:36;;;;;;;13.23;2.97;;;6.30;78.40;;;;;;4992822;28;20046;-80
2022/01/09 06:11:02;;;;;;;15.07;3.08;;;6.30;78.30;;;;;;4956668;28;1070120;-82
2022/01/09 06:13:28;;;;;;;18.02;3.03;;;6.30;78.30;;;;;;4977355;28;20050;-80
2022/01/09 06:15:53;;;;;;;14.68;2.72;;;6.30;78.30;;;;;;4960678;28;20054;-80
2022/01/09 06:18:20;;;;;;;16.08;2.95;;;6.20;78.10;;;;;;4985984;28;20041;-80
2022/01/09 06:20:47;;;;;;;14.18;2.55;;;6.20;78.10;;;;;;4980831;28;20137;-80
2022/01/09 06:23:13;;;;;;;8.52;1.95;;;6.20;78.10;;;;;;4976591;28;20503;-82
2022/01/09 06:25:38;;;;;;;13.63;2.80;;;6.20;78.10;;;;;;4993893;28;20129;-82
2022/01/09 06:28:04;;;;;;;16.75;2.42;;;6.20;78.00;;;;;;4993080;28;20045;-80
2022/01/09 06:30:30;;;;;;;14.32;2.30;;;6.20;78.00;;;;;;4995290;28;20077;-80
2022/01/09 06:32:55;;;;;;;12.95;2.75;;;6.20;77.90;;;;;;4973671;28;20125;-80
2022/01/09 06:35:21;;;;;;;10.65;1.95;;;6.20;77.90;;;;;;4976855;28;20097;-80
2022/01/09 06:37:48;;;;;;;15.52;2.75;;;6.10;77.70;;;;;;4974783;28;20439;-83
2022/01/09 06:40:14;;;;;;;13.38;2.30;;;6.10;77.70;;;;;;4993548;28;20052;-80
2022/01/09 06:42:39;;;;;;;15.13;2.20;;;6.10;77.70;;;;;;4976774;28;20478;-80
2022/01/09 06:45:06;;;;;;;13.00;2.65;;;6.10;77.70;;;;;;4976938;28;20056;-81
2022/01/09 06:47:31;;;;;;;13.55;1.90;;;6.10;77.60;;;;;;4976773;28;20509;-80
2022/01/09 06:49:58;;;;;;;8.90;1.98;;;6.10;77.60;;;;;;4994063;28;20075;-80
2022/01/09 06:52:25;;;;;;;7.57;1.58;;;6.10;77.40;;;;;;4994745;28;20046;-81
2022/01/09 06:54:50;;;;;;;6.03;1.70;;;6.00;77.20;;;;;;4975577;28;20039;-81
2022/01/09 06:57:16;;;;;;;7.00;1.70;;;6.00;77.20;;;;;;4994602;28;20103;-81
2022/01/09 06:59:41;;;;;;;7.13;1.73;;;6.00;77.20;;;;;;4983728;28;20085;-80
2022/01/09 07:02:07;;;;;;;9.43;1.63;;;5.90;77.00;;;;;;4994674;28;20121;-80
2022/01/09 07:04:33;;;;;;;9.43;1.50;;;5.90;77.00;;;;;;4976032;28;20963;-81
2022/01/09 07:06:58;;;;;;;11.18;1.45;;;5.90;76.90;;;;;;4994358;28;20057;-80
2022/01/09 07:09:24;;;;;;;10.00;2.38;;;5.90;76.90;;;;;;4982332;28;20074;-81
2022/01/09 07:11:50;;;;;;;8.55;1.52;;;5.80;76.80;;;;;;4993743;28;20054;-81
2022/01/09 07:14:16;;;;;;;10.20;1.50;;;5.80;76.80;;;;;;4985467;28;20046;-81
2022/01/09 07:16:41;;;;;;;7.82;1.50;;;5.80;76.80;;;;;;4990302;28;20482;-80
2022/01/09 07:19:07;;;;;;;12.38;1.95;;;5.80;76.90;;;;;;4985323;28;20050;-80
2022/01/09 07:21:33;;;;;;;11.95;2.70;;;5.80;77.00;;;;;;4957677;28;20050;-81
2022/01/09 07:23:58;;;;;;;5.72;1.27;;;5.80;77.10;;;;;;4983026;28;20043;-81
2022/01/09 07:26:24;;;;;;;12.10;2.20;;;5.80;77.20;;;;;;4978602;28;20041;-80
2022/01/09 07:28:49;;;;;;;7.03;1.40;;;5.80;77.30;;;;;;4971187;28;20039;-83
2022/01/09 07:31:15;;;;;;;6.32;1.88;;;5.80;77.30;;;;;;4993441;28;20425;-81
2022/01/09 07:33:41;;;;;;;10.40;1.75;;;5.80;77.40;;;;;;4992462;28;20086;-80
2022/01/09 07:36:06;;;;;;;15.88;1.52;;;5.80;77.50;;;;;;4992557;28;20401;-82
2022/01/09 07:38:32;;;;;;;11.15;1.65;;;5.80;77.50;;;;;;4991934;28;20042;-81
2022/01/09 07:40:58;;;;;;;8.10;1.65;;;5.80;77.60;;;;;;4997519;28;20046;-81
2022/01/09 07:43:23;;;;;;;14.15;2.47;;;5.80;77.60;;;;;;4979981;28;20046;-80
2022/01/09 07:45:49;;;;;;;11.98;2.00;;;5.80;77.50;;;;;;4994899;28;20038;-81
2022/01/09 07:48:15;;;;;;;11.82;2.28;;;5.80;77.50;;;;;;4997466;28;20043;-81
2022/01/09 07:50:40;;;;;;;8.65;1.60;;;5.80;77.40;;;;;;4978866;28;20039;-81
2022/01/09 07:53:06;;;;;;;9.20;1.50;;;5.80;77.40;;;;;;4979890;28;20050;-81
2022/01/09 07:55:32;;;;;;;8.90;1.83;;;5.80;77.40;;;;;;4976835;28;20432;-82
2022/01/09 07:57:57;;;;;;;13.05;2.90;;;5.80;77.50;;;;;;4974011;28;20053;-82
2022/01/09 08:00:23;;;;;;;9.90;1.98;;;5.80;77.40;;;;;;4984107;28;20102;-82
2022/01/09 08:02:51;;;;;;;7.88;1.65;;;5.80;77.30;;;;;;4996013;28;20034;-82
2022/01/09 08:05:17;;;;;;;7.93;1.50;;;5.80;77.30;;;;;;4975248;28;20508;-82
2022/01/09 08:07:43;;;;;;;6.20;1.70;;;5.80;77.30;;;;;;4972793;28;20051;-82
2022/01/09 08:10:09;;;;;;;5.85;1.38;;;5.80;77.20;;;;;;4980429;28;20368;-82
2022/01/09 08:12:35;;;;;;;11.32;1.45;;;5.80;77.20;;;;;;4980457;28;21707;-85
2022/01/09 08:15:01;;;;;;;8.98;1.83;;;5.80;77.20;;;;;;4972024;28;20090;-82
2022/01/09 08:17:26;;;;;;;6.60;1.42;;;5.80;77.20;;;;;;4981313;28;20121;-82
2022/01/09 08:19:52;;;;;;;9.43;2.10;;;5.80;77.30;;;;;;4990867;28;20086;-82
2022/01/09 08:22:18;;;;;;;9.90;1.80;;;5.80;77.30;;;;;;4968461;28;20038;-82
2022/01/09 08:24:44;;;;;;;6.57;1.30;;;5.80;77.30;;;;;;4964803;28;20130;-82
2022/01/09 08:27:10;;;;;;;12.77;2.17;;;5.80;77.30;;;;;;4993371;28;20109;-82
2022/01/09 08:29:37;;;;;;;11.32;1.77;;;5.80;77.30;;;;;;4985918;28;20125;-82
2022/01/09 08:32:04;;;;;;;9.40;1.83;;;5.80;77.40;;;;;;4962409;28;20053;-82
2022/01/09 08:34:29;;;;;;;12.60;2.10;;;5.80;77.40;;;;;;4993997;28;20129;-82
2022/01/09 08:36:55;;;;;;;6.97;1.83;;;5.80;77.50;;;;;;4991103;28;20125;-81
2022/01/09 08:39:21;;;;;;;9.15;1.85;;;5.80;77.60;;;;;;4995442;28;20469;-82
2022/01/09 08:41:46;;;;;;;9.40;1.83;;;5.80;77.60;;;;;;4974383;28;20077;-82
2022/01/09 08:44:12;;;;;;;10.45;2.00;;;5.90;77.70;;;;;;4989748;28;20057;-81
2022/01/09 08:46:38;;;;;;;9.98;1.67;;;5.90;77.70;;;;;;4984943;28;20038;-82
2022/01/09 08:49:04;;;;;;;11.70;2.30;;;5.90;77.70;;;;;;4973535;28;20050;-81
2022/01/09 08:51:31;;;;;;;9.98;1.65;;;5.90;77.60;;;;;;4980163;28;20493;-82
2022/01/09 08:53:57;;;;;;;10.93;1.80;;;5.90;77.60;;;;;;4969938;28;20042;-82
2022/01/09 08:56:25;;;;;;;11.15;2.42;;;5.90;77.50;;;;;;4990440;28;20166;-83
2022/01/09 08:58:51;;;;;;;11.27;2.00;;;5.90;77.50;;;;;;4977288;28;20089;-82
2022/01/09 09:01:17;;;;;;;7.65;1.55;;;5.90;77.50;;;;;;4993243;28;20473;-83
2022/01/09 09:03:43;;;;;;;12.38;2.47;;;5.90;77.40;;;;;;4996279;28;20433;-82
2022/01/09 09:06:13;;;;;;;6.43;1.25;;;5.90;77.40;;;;;;4975370;28;20108;-82
2022/01/09 09:08:40;;;;;;;8.63;2.10;;;5.90;77.20;;;;;;4994334;28;20394;-82
2022/01/09 09:11:07;;;;;;;11.07;2.20;;;5.90;77.10;;;;;;4975813;28;20546;-82
2022/01/09 09:13:34;;;;;;;10.30;1.50;;;5.90;76.90;;;;;;4995847;28;20529;-82
2022/01/09 09:16:01;;;;;;;10.00;1.45;;;5.90;76.80;;;;;;4976329;28;20050;-82
2022/01/09 09:18:26;;;;;;;10.68;1.50;;;5.90;76.60;;;;;;4995128;28;20045;-82
2022/01/09 09:20:52;;;;;;;12.52;1.90;;;5.90;76.50;;;;;;4990595;28;20042;-82
2022/01/09 09:23:18;;;;;;;9.23;1.40;;;5.90;76.40;;;;;;4994704;28;20398;-82
2022/01/09 09:25:43;;;;;;;9.15;1.42;;;5.90;76.30;;;;;;4992311;28;22336;-82
2022/01/09 09:28:09;;;;;;;7.90;1.40;;;6.00;76.20;;;;;;4995768;28;20439;-82
2022/01/09 09:30:36;;;;;;;6.30;1.40;;;6.00;76.20;;;;;;4991772;28;20042;-82
2022/01/09 09:33:03;;;;;;;10.15;1.38;;;6.00;76.20;;;;;;4971752;28;20497;-82
2022/01/09 09:35:29;;;;;;;7.13;1.55;;;5.90;76.10;;;;;;4976398;28;20042;-82
2022/01/09 09:37:55;;;;;;;10.40;1.40;;;6.00;76.20;;;;;;4993970;28;20129;-82
2022/01/09 09:40:21;;;;;;;8.73;1.35;;;6.00;76.20;;;;;;4992533;28;20046;-80
2022/01/09 09:42:46;;;;;;;6.40;1.55;;;6.00;76.30;;;;;;4996221;28;20038;-82
2022/01/09 09:45:13;;;;;;;8.63;1.60;;;6.00;76.40;;;;;;4977854;28;20046;-81
2022/01/09 09:47:41;;;;;;;8.00;1.58;;;6.00;76.60;;;;;;4978136;28;20078;-82
2022/01/09 09:50:11;;;;;;;6.00;1.73;;;6.00;76.70;;;;;;4986694;28;20049;-81
2022/01/09 09:52:36;;;;;;;6.00;1.38;;;6.10;76.90;;;;;;4962062;28;20042;-82
2022/01/09 09:55:03;;;;;;;6.38;1.35;;;6.10;77.00;;;;;;4995128;28;20046;-82
2022/01/09 09:57:29;;;;;;;7.38;1.40;;;6.10;77.10;;;;;;4993901;28;20031;-81
2022/01/09 10:00:05;;;;;;;6.18;1.40;;;6.10;77.20;;;;;;4978050;28;20124;-81
2022/01/09 10:03:01;;;;;;;7.78;1.20;;;6.10;77.30;;;;;;4982246;28;20053;-81
2022/01/09 10:05:35;;;;;;;7.90;1.40;;;6.10;77.20;;;;;;4927612;29;20114;-81
2022/01/09 10:08:12;;;;;;;8.43;2.30;;;6.20;77.30;;;;;;4938320;29;20047;-82
2022/01/09 10:10:39;;;;;;;10.93;1.65;;;6.20;77.40;;;;;;4937788;29;20062;-81
2022/01/09 10:13:10;;;;;;;10.40;1.63;;;6.20;77.30;;;;;;4937786;29;20060;-82
2022/01/09 10:15:56;;;;;;;4.10;1.40;;;6.20;77.40;;;;;;4920353;29;20162;-81
2022/01/09 10:18:45;;;;;;;9.32;1.10;;;6.20;77.40;;;;;;4948213;29;20028;-82
2022/01/09 10:21:19;;;;;;;7.50;1.48;;;6.20;77.40;;;;;;4956891;29;20054;-82
2022/01/09 10:24:07;;;;;;;6.13;1.23;;;6.30;77.50;;;;;;4927283;29;20050;-82
2022/01/09 10:26:47;;;;;;;6.20;1.10;;;6.30;77.50;;;;;;4916989;29;20608;-82
2022/01/09 10:29:13;;;;;;;8.20;1.30;;;6.30;77.60;;;;;;4930822;29;20245;-82
2022/01/09 10:31:49;;;;;;;6.03;1.58;;;6.40;77.60;;;;;;4907756;29;20547;-82
2022/01/09 10:34:17;;;;;;;11.38;1.52;;;6.40;77.60;;;;;;4926039;29;20055;-82
2022/01/09 10:36:49;;;;;;;6.05;1.63;;;6.40;77.50;;;;;;4916241;29;20067;-81
2022/01/09 10:39:34;;;;;;;9.25;1.63;;;6.50;77.60;;;;;;4918136;29;20064;-83
2022/01/09 10:42:03;;;;;;;9.70;1.98;;;6.50;77.60;;;;;;4955455;28;20489;-82
2022/01/09 10:44:35;;;;;;;6.13;1.58;;;6.50;77.50;;;;;;4993533;28;20125;-83
2022/01/09 10:47:10;;;;;;;7.35;1.65;;;6.60;77.60;;;;;;4992474;28;20053;-84
2022/01/09 10:49:41;;;;;;;8.52;1.85;;;6.60;77.50;;;;;;4977577;28;20050;-83
2022/01/09 10:52:26;;;;;;;8.85;1.55;;;6.70;77.50;;;;;;4990427;28;20046;-82
2022/01/09 10:54:55;;;;;;;8.02;2.28;;;6.70;77.40;;;;;;4986096;28;20077;-82
2022/01/09 10:57:23;;;;;;;10.10;2.42;;;6.80;77.40;;;;;;4967628;28;20042;-82
2022/01/09 10:59:50;;;;;;;9.98;2.22;;;6.80;77.20;;;;;;4983743;28;20061;-82
2022/01/09 11:02:16;;;;;;;11.10;2.88;;;6.80;77.10;;;;;;4962138;28;20046;-81
2022/01/09 11:04:43;;;;;;;13.05;2.58;;;6.90;77.10;;;;;;4973545;28;20472;-81
2022/01/09 11:07:10;;;;;;;14.13;2.33;;;6.90;77.00;;;;;;4972852;28;20038;-82
2022/01/09 11:09:44;;;;;;;14.38;2.38;;;6.90;76.80;;;;;;4992111;28;20120;-81
2022/01/09 11:12:16;;;;;;;12.15;2.55;;;7.00;76.80;;;;;;4963394;28;20054;-78
2022/01/09 11:14:43;;;;;;;8.95;1.98;;;7.00;76.70;;;;;;4976151;28;20121;-79
2022/01/09 11:17:10;;;;;;;13.25;3.33;;;7.00;76.50;;;;;;4977104;28;20390;-79
2022/01/09 11:19:37;;;;;;;13.23;2.40;;;7.00;76.40;;;;;;4969734;28;20054;-80
2022/01/09 11:22:06;;;;;;;10.13;2.65;;;7.00;76.40;;;;;;4957799;28;20443;-80
2022/01/09 11:24:40;;;;;;;13.95;2.13;;;7.00;76.40;;;;;;4971221;28;20050;-81
2022/01/09 11:27:06;;;;;;;;;;;7.00;76.30;;;;;;4972139;28;20053;-81
2022/01/09 11:30:09;;;;;;;12.10;2.55;;;7.00;76.10;;;;;;4975836;28;19921;-81
2022/01/09 11:33:00;;;;;;;12.88;2.83;;;7.00;76.40;;;;;;4993196;28;20101;-81
2022/01/09 11:35:34;;;;;;;16.13;2.63;;;7.10;76.40;;;;;;4988549;28;20370;-80
2022/01/09 11:38:08;;;;;;;9.63;2.73;;;7.10;76.40;;;;;;4994254;28;20047;-81
2022/01/09 11:40:34;;;;;;;13.20;2.63;;;7.10;76.40;;;;;;4969022;28;20441;-80
2022/01/09 11:43:09;;;;;;;14.18;2.58;;;7.10;76.80;;;;;;4979533;28;20605;-82
2022/01/09 11:46:00;;;;;;;15.52;3.03;;;7.10;76.30;;;;;;4963448;28;20053;-81
2022/01/09 11:48:59;;;;;;;11.90;3.47;;;7.10;76.20;;;;;;4971483;28;20486;-81
2022/01/09 11:51:34;;;;;;;9.48;2.05;;;7.10;76.20;;;;;;4976625;28;20386;-80
2022/01/09 11:54:12;;;;;;;11.50;2.28;;;7.10;76.40;;;;;;4987227;28;20050;-81
2022/01/09 11:56:41;;;;;;;12.32;2.50;;;7.10;76.40;;;;;;4971001;28;20042;-81
2022/01/09 11:59:47;;;;;;;14.48;2.90;;;7.20;76.50;;;;;;4991645;28;20038;-81
2022/01/09 12:02:12;;;;;;;13.32;2.03;;;7.20;76.50;;;;;;4970266;28;20070;-81
2022/01/09 12:04:41;;;;;;;12.38;2.20;;;7.20;76.30;;;;;;4968006;28;20652;-80
2022/01/09 12:07:12;;;;;;;19.88;4.32;;;7.20;76.00;;;;;;4992316;28;20182;-81
2022/01/09 12:09:38;;;;;;;13.73;2.28;;;7.20;75.90;;;;;;4971074;28;20038;-81
2022/01/09 12:12:03;;;;;;;8.85;2.53;;;7.10;75.80;;;;;;4969283;28;20060;-81
2022/01/09 12:14:54;;;;;;;12.07;2.03;;;7.20;75.80;;;;;;4985471;28;20043;-81
2022/01/09 12:17:28;;;;;;;12.85;2.35;;;7.20;75.70;;;;;;4963499;28;20061;-81
2022/01/09 12:20:11;;;;;;;9.93;2.13;;;7.20;75.80;;;;;;4987343;28;20050;-81
2022/01/09 12:25:26;;;;;;;10.13;1.65;;;7.20;75.80;;;;;;4978926;28;20042;-80
2022/01/09 12:28:14;;;;;;;8.15;2.17;;;7.20;75.80;;;;;;4977847;28;20046;-82
2022/01/09 12:30:41;;;;;;;9.35;1.67;;;7.20;75.90;;;;;;4996858;28;20497;-83
2022/01/09 12:33:19;;;;;;;5.43;2.00;;;7.20;75.90;;;;;;4979436;28;20042;-83
2022/01/09 12:35:59;;;;;;;13.80;2.50;;;7.20;75.80;;;;;;4979400;28;20046;-83
2022/01/09 12:38:28;;;;;;;10.20;1.60;;;7.10;75.60;;;;;;4997592;28;20049;-83
2022/01/09 12:41:06;;;;;;;8.85;1.48;;;7.10;75.50;;;;;;4996492;28;20512;-83
2022/01/09 12:43:33;;;;;;;9.02;1.30;;;7.20;75.40;;;;;;4978947;28;20050;-83
2022/01/09 12:46:06;;;;;;;10.15;1.85;;;7.10;75.20;;;;;;4996064;28;20096;-83
2022/01/09 12:48:32;;;;;;;7.90;1.43;;;7.10;75.10;;;;;;4980131;28;20053;-81
2022/01/09 12:51:14;;;;;;;5.82;1.30;;;7.10;75.00;;;;;;4994394;28;20046;-82
2022/01/09 12:53:58;;;;;;;6.45;1.50;;;7.10;74.70;;;;;;4979429;28;20042;-82
2022/01/09 12:56:26;;;;;;;9.15;1.58;;;7.10;74.80;;;;;;4991903;28;20049;-82
2022/01/09 12:59:06;;;;;;;12.00;1.73;;;7.00;74.70;;;;;;4987354;28;20086;-82
2022/01/09 13:01:41;;;;;;;13.75;2.83;;;7.00;74.80;;;;;;5003089;28;20480;-83
2022/01/09 13:04:18;;;;;;;14.10;2.47;;;7.00;74.80;;;;;;5002928;28;20038;-83